createdAt,value
2019-04-07T00:02:08.629Z,7.45
2019-04-07T00:07:04.064Z,7.59
2019-04-07T00:11:59.123Z,7.42
2019-04-07T00:16:54.139Z,7.38
2019-04-07T00:21:48.764Z,7.29
2019-04-07T00:26:43.380Z,7.52
2019-04-07T00:31:38.597Z,7.42
2019-04-07T00:36:34.111Z,7.51
2019-04-07T00:41:28.785Z,7.45
2019-04-07T00:46:23.410Z,7.43
2019-04-07T00:51:17.966Z,7.40
2019-04-07T00:56:13.141Z,7.38
2019-04-07T01:01:09.126Z,7.38
2019-04-07T01:06:03.801Z,7.26
2019-04-07T01:10:58.602Z,7.31
2019-04-07T01:15:53.764Z,7.56
2019-04-07T01:20:48.624Z,7.47
2019-04-07T01:25:43.219Z,7.71
2019-04-07T01:30:37.892Z,7.69
2019-04-07T01:35:32.983Z,7.48
2019-04-07T01:40:27.829Z,7.42
2019-04-07T01:45:24.142Z,7.44
2019-04-07T01:50:26.449Z,7.51
2019-04-07T01:55:29.942Z,7.54
2019-04-07T02:00:42.916Z,7.54
2019-04-07T02:05:59.820Z,7.52
2019-04-07T02:10:51.629Z,7.59
2019-04-07T02:16:04.933Z,7.66
2019-04-07T02:21:02.137Z,7.70
2019-04-07T02:25:59.294Z,7.56
2019-04-07T02:30:56.168Z,7.53
2019-04-07T02:35:56.036Z,7.51
2019-04-07T02:40:55.872Z,7.62
2019-04-07T02:45:57.990Z,7.81
2019-04-07T02:50:54.940Z,7.88
2019-04-07T02:56:06.603Z,7.74
2019-04-07T03:01:09.650Z,7.72
2019-04-07T03:06:37.487Z,7.54
2019-04-07T03:11:32.400Z,7.31
2019-04-07T03:16:26.755Z,7.40
2019-04-07T03:21:32.967Z,7.43
2019-04-07T03:26:27.383Z,7.47
2019-04-07T03:31:27.376Z,7.51
2019-04-07T03:36:28.489Z,7.52
2019-04-07T03:41:25.722Z,7.53
2019-04-07T03:46:25.297Z,7.52
2019-04-07T03:51:37.763Z,7.53
2019-04-07T03:56:46.106Z,7.50
2019-04-07T04:01:59.167Z,7.54
2019-04-07T04:07:22.376Z,7.57
2019-04-07T04:12:15.046Z,7.66
2019-04-07T04:17:09.682Z,7.80
2019-04-07T04:22:04.261Z,7.94
2019-04-07T04:26:59.200Z,8.06
2019-04-07T04:31:54.666Z,8.10
2019-04-07T04:36:50.222Z,8.21
2019-04-07T04:41:45.041Z,8.09
2019-04-07T04:46:39.632Z,7.75
2019-04-07T04:51:37.011Z,7.78
2019-04-07T04:56:30.972Z,7.59
2019-04-07T05:01:26.466Z,7.38
2019-04-07T05:06:21.409Z,7.39
2019-04-07T05:11:15.978Z,7.52
2019-04-07T05:16:10.647Z,7.81
2019-04-07T05:21:05.280Z,7.89
2019-04-07T05:26:00.424Z,7.92
2019-04-07T05:30:55.055Z,7.93
2019-04-07T05:35:49.665Z,7.94
2019-04-07T05:40:44.850Z,7.98
2019-04-07T05:45:39.995Z,8.05
2019-04-07T05:50:34.975Z,8.23
2019-04-07T05:55:30.423Z,8.40
2019-04-07T06:00:26.005Z,8.56
2019-04-07T06:05:21.242Z,8.76
2019-04-07T06:10:16.632Z,8.91
2019-04-07T06:15:17.710Z,9.01
2019-04-07T06:20:14.250Z,9.31
2019-04-07T06:25:09.580Z,9.45
2019-04-07T06:30:08.456Z,9.67
2019-04-07T06:35:03.876Z,9.98
2019-04-07T06:39:59.244Z,10.20
2019-04-07T06:44:54.293Z,10.40
2019-04-07T06:49:53.589Z,10.57
2019-04-07T06:54:56.029Z,10.76
2019-04-07T06:59:50.463Z,10.90
2019-04-07T07:04:49.761Z,10.95
2019-04-07T07:09:57.966Z,10.96
2019-04-07T07:15:03.651Z,10.99
2019-04-07T07:20:06.800Z,10.99
2019-04-07T07:25:01.604Z,11.21
2019-04-07T07:29:56.582Z,11.44
2019-04-07T07:34:52.083Z,11.71
2019-04-07T07:39:47.518Z,12.15
2019-04-07T07:44:42.693Z,12.61
2019-04-07T07:49:40.281Z,13.14
2019-04-07T07:54:35.102Z,13.26
2019-04-07T07:59:33.534Z,12.97
2019-04-07T08:04:26.972Z,12.85
2019-04-07T08:09:25.723Z,12.76
2019-04-07T08:14:19.710Z,12.85
2019-04-07T08:19:14.635Z,12.63
2019-04-07T08:24:10.114Z,12.96
2019-04-07T08:29:06.840Z,13.12
2019-04-07T08:34:02.223Z,13.05
2019-04-07T08:38:57.182Z,13.06
2019-04-07T08:43:55.319Z,12.68
2019-04-07T08:48:51.843Z,12.67
2019-04-07T08:53:45.110Z,12.68
2019-04-07T08:58:40.143Z,12.66
2019-04-07T09:03:35.785Z,13.10
2019-04-07T09:08:30.728Z,13.16
2019-04-07T09:13:25.325Z,13.41
2019-04-07T09:18:21.557Z,13.76
2019-04-07T09:23:17.792Z,13.93
2019-04-07T09:28:21.189Z,14.86
2019-04-07T09:33:21.596Z,15.22
2019-04-07T09:38:24.955Z,15.11
2019-04-07T09:43:19.952Z,15.33
2019-04-07T09:48:21.776Z,14.58
2019-04-07T09:53:21.385Z,14.60
2019-04-07T09:58:23.960Z,14.57
2019-04-07T10:03:38.088Z,14.20
2019-04-07T10:08:37.380Z,14.37
2019-04-07T10:13:39.831Z,14.46
2019-04-07T10:18:52.275Z,14.13
2019-04-07T10:24:05.261Z,13.90
2019-04-07T10:29:01.829Z,13.82
2019-04-07T10:34:13.448Z,14.30
2019-04-07T10:39:17.530Z,14.35
2019-04-07T10:44:29.217Z,15.05
2019-04-07T10:49:26.196Z,15.67
2019-04-07T10:54:23.347Z,15.62
2019-04-07T10:59:23.879Z,15.48
2019-04-07T11:04:23.068Z,15.24
2019-04-07T11:09:17.820Z,15.34
2019-04-07T11:14:12.303Z,15.36
2019-04-07T11:19:12.983Z,15.86
2019-04-07T11:24:12.339Z,15.38
2019-04-07T11:29:17.749Z,15.13
2019-04-07T11:34:17.397Z,14.83
2019-04-07T11:39:32.696Z,14.90
2019-04-07T11:44:30.039Z,15.24
2019-04-07T11:49:31.979Z,15.68
2019-04-07T11:54:33.938Z,16.00
2019-04-07T11:59:39.658Z,16.50
2019-04-07T12:04:41.757Z,16.66
2019-04-07T12:09:39.523Z,16.97
2019-04-07T12:14:51.292Z,17.08
2019-04-07T12:19:46.305Z,17.34
2019-04-07T12:25:00.744Z,17.10
2019-04-07T12:29:58.607Z,17.06
2019-04-07T12:35:04.237Z,16.17
2019-04-07T12:40:03.257Z,16.08
2019-04-07T12:45:10.061Z,16.22
2019-04-07T12:50:15.514Z,16.49
2019-04-07T12:55:11.962Z,15.90
2019-04-07T13:00:25.172Z,15.89
2019-04-07T13:05:30.440Z,16.03
2019-04-07T13:10:30.242Z,16.53
2019-04-07T13:15:45.482Z,16.88
2019-04-07T13:20:55.343Z,16.98
2019-04-07T13:25:55.007Z,16.37
2019-04-07T13:30:50.398Z,16.22
2019-04-07T13:35:46.612Z,16.03
2019-04-07T13:40:59.506Z,15.78
2019-04-07T13:46:19.992Z,15.85
2019-04-07T13:51:26.880Z,15.90
2019-04-07T13:56:27.181Z,15.91
2019-04-07T14:01:23.429Z,15.89
2019-04-07T14:06:36.239Z,15.52
2019-04-07T14:11:32.790Z,15.27
2019-04-07T14:16:46.416Z,15.40
2019-04-07T14:21:47.305Z,15.28
2019-04-07T14:26:48.956Z,15.57
2019-04-07T14:31:54.082Z,15.82
2019-04-07T14:37:05.380Z,15.76
2019-04-07T14:42:06.713Z,15.99
2019-04-07T14:47:16.755Z,15.91
2019-04-07T14:52:19.866Z,16.18
2019-04-07T14:57:16.968Z,16.35
2019-04-07T15:02:12.783Z,16.55
2019-04-07T15:07:12.058Z,16.45
2019-04-07T15:12:17.091Z,16.17
2019-04-07T15:17:05.782Z,16.34
2019-04-07T15:22:02.315Z,16.39
2019-04-07T15:26:57.780Z,16.25
2019-04-07T15:31:53.166Z,15.95
2019-04-07T15:36:49.720Z,15.93
2019-04-07T15:41:45.480Z,16.17
2019-04-07T15:46:41.505Z,15.85
2019-04-07T15:51:36.257Z,15.76
2019-04-07T15:56:31.458Z,15.75
2019-04-07T16:01:26.902Z,15.83
2019-04-07T16:06:21.888Z,15.81
2019-04-07T16:11:17.652Z,15.74
2019-04-07T16:16:13.445Z,15.82
2019-04-07T16:21:09.482Z,15.85
2019-04-07T16:26:04.860Z,15.85
2019-04-07T16:30:59.643Z,15.64
2019-04-07T16:35:56.322Z,15.58
2019-04-07T16:40:50.817Z,15.30
2019-04-07T16:45:46.290Z,15.25
2019-04-07T16:50:41.932Z,15.20
2019-04-07T16:55:41.579Z,15.36
2019-04-07T17:00:36.538Z,15.12
2019-04-07T17:05:32.206Z,14.88
2019-04-07T17:10:32.351Z,14.67
2019-04-07T17:15:23.767Z,14.45
2019-04-07T17:20:18.967Z,14.34
2019-04-07T17:25:15.087Z,14.27
2019-04-07T17:30:23.644Z,14.17
2019-04-07T17:35:18.920Z,14.18
2019-04-07T17:40:17.184Z,14.09
2019-04-07T17:45:29.733Z,14.01
2019-04-07T17:50:42.334Z,13.82
2019-04-07T17:55:36.851Z,13.76
2019-04-07T18:00:50.665Z,13.65
2019-04-07T18:05:45.652Z,13.40
2019-04-07T18:10:50.717Z,13.27
2019-04-07T18:15:54.366Z,13.14
2019-04-07T18:20:57.137Z,13.09
2019-04-07T18:26:10.617Z,12.88
2019-04-07T18:31:22.627Z,12.81
2019-04-07T18:36:37.759Z,12.70
2019-04-07T18:41:50.533Z,12.59
2019-04-07T18:46:50.132Z,12.49
2019-04-07T18:51:51.840Z,12.44
2019-04-07T18:56:49.558Z,12.35
2019-04-07T19:01:52.237Z,12.12
2019-04-07T19:07:02.205Z,12.16
2019-04-07T19:12:07.969Z,12.04
2019-04-07T19:17:17.178Z,11.94
2019-04-07T19:22:26.700Z,11.84
2019-04-07T19:27:39.013Z,11.75
2019-04-07T19:32:33.408Z,11.77
2019-04-07T19:37:32.544Z,11.79
2019-04-07T19:42:31.832Z,11.66
2019-04-07T19:47:32.845Z,11.56
2019-04-07T19:52:42.911Z,11.57
2019-04-07T19:57:42.726Z,11.50
2019-04-07T20:02:44.815Z,11.52
2019-04-07T20:08:08.190Z,11.46
2019-04-07T20:13:16.361Z,11.41
2019-04-07T20:18:16.665Z,11.43
2019-04-07T20:23:19.780Z,11.40
2019-04-07T20:28:30.253Z,11.36
2019-04-07T20:33:23.517Z,11.37
2019-04-07T20:38:25.521Z,11.29
2019-04-07T20:43:21.735Z,11.24
2019-04-07T20:48:17.526Z,11.23
2019-04-07T20:53:23.204Z,11.14
2019-04-07T20:58:43.754Z,11.16
2019-04-07T21:03:27.957Z,11.14
2019-04-07T21:08:30.217Z,11.24
2019-04-07T21:13:25.638Z,11.12
2019-04-07T21:18:34.940Z,11.06
2019-04-07T21:23:31.621Z,11.10
2019-04-07T21:28:43.919Z,11.08
2019-04-07T21:33:41.305Z,11.04
2019-04-07T21:38:45.402Z,11.10
2019-04-07T21:43:42.678Z,11.06
2019-04-07T21:48:39.185Z,10.85
2019-04-07T21:53:35.486Z,10.72
2019-04-07T21:58:48.630Z,10.79
2019-04-07T22:04:00.947Z,10.66
2019-04-07T22:09:00.301Z,10.60
2019-04-07T22:13:55.407Z,10.59
2019-04-07T22:18:51.204Z,10.49
2019-04-07T22:23:46.431Z,10.53
2019-04-07T22:28:41.571Z,10.52
2019-04-07T22:33:36.861Z,10.57
2019-04-07T22:38:31.771Z,10.51
2019-04-07T22:43:26.510Z,10.54
2019-04-07T22:48:25.289Z,10.50
2019-04-07T22:53:21.299Z,10.48
2019-04-07T22:58:13.940Z,10.41
2019-04-07T23:03:08.689Z,10.35
2019-04-07T23:08:04.041Z,10.27
2019-04-07T23:12:59.406Z,10.22
2019-04-07T23:17:54.361Z,10.16
2019-04-07T23:22:49.943Z,10.07
2019-04-07T23:27:45.585Z,10.05
2019-04-07T23:32:41.421Z,10.08
2019-04-07T23:37:36.957Z,9.97
2019-04-07T23:42:32.670Z,9.98
2019-04-07T23:47:27.350Z,9.95
2019-04-07T23:52:22.939Z,9.91
2019-04-07T23:57:17.811Z,9.83
